sensor_id;sensor_type;location;lat;lon;timestamp;pressure;altitude;pressure_sealevel;temperature;humidity
45763;BME280;37512;52.408;13.356;2024-03-23T00:53:56;100284.97;;;7.70;100.00
45763;BME280;37512;52.408;13.356;2024-03-23T00:57:56;100286.44;;;7.72;100.00
45763;BME280;37512;52.408;13.356;2024-03-23T01:01:57;100277.66;;;7.47;100.00
45763;BME280;37512;52.408;13.356;2024-03-23T01:06:02;100279.78;;;7.76;100.00
45763;BME280;37512;52.408;13.356;2024-03-23T01:10:07;100267.47;;;7.59;100.00
45763;BME280;37512;52.408;13.356;2024-03-23T01:14:08;100265.66;;;7.27;100.00
45763;BME280;37512;52.408;13.356;2024-03-23T01:18:09;100281.16;;;7.40;100.00
45763;BME280;37512;52.408;13.356;2024-03-23T01:22:09;100267.84;;;7.32;100.00
45763;BME280;37512;52.408;13.356;2024-03-23T01:26:13;100254.63;;;7.71;100.00
45763;BME280;37512;52.408;13.356;2024-03-23T01:30:14;100237.63;;;7.72;100.00
45763;BME280;37512;52.408;13.356;2024-03-23T01:34:15;100227.38;;;7.92;100.00
45763;BME280;37512;52.408;13.356;2024-03-23T01:38:16;100220.44;;;7.82;100.00
45763;BME280;37512;52.408;13.356;2024-03-23T01:42:16;100209.25;;;7.79;100.00
45763;BME280;37512;52.408;13.356;2024-03-23T01:46:17;100205.78;;;7.62;100.00
45763;BME280;37512;52.408;13.356;2024-03-23T01:50:19;100214.19;;;7.26;100.00
45763;BME280;37512;52.408;13.356;2024-03-23T01:54:20;100223.19;;;7.34;100.00
45763;BME280;37512;52.408;13.356;2024-03-23T01:58:20;100214.03;;;7.28;100.00
45763;BME280;37512;52.408;13.356;2024-03-23T02:02:21;100214.19;;;7.51;100.00
45763;BME280;37512;52.408;13.356;2024-03-23T02:06:22;100223.38;;;7.16;100.00
45763;BME280;37512;52.408;13.356;2024-03-23T02:10:24;100212.69;;;7.24;100.00
45763;BME280;37512;52.408;13.356;2024-03-23T02:14:24;100202.16;;;7.55;100.00
45763;BME280;37512;52.408;13.356;2024-03-23T02:18:25;100205.00;;;7.53;100.00
45763;BME280;37512;52.408;13.356;2024-03-23T02:22:35;100193.41;;;7.85;100.00
45763;BME280;37512;52.408;13.356;2024-03-23T02:26:36;100190.97;;;7.60;100.00
45763;BME280;37512;52.408;13.356;2024-03-23T02:30:37;100178.38;;;7.37;100.00
45763;BME280;37512;52.408;13.356;2024-03-23T02:34:37;100188.56;;;7.09;100.00
45763;BME280;37512;52.408;13.356;2024-03-23T02:38:38;100173.91;;;7.21;100.00
45763;BME280;37512;52.408;13.356;2024-03-23T02:42:39;100174.59;;;7.07;100.00
45763;BME280;37512;52.408;13.356;2024-03-23T02:46:39;100159.28;;;6.85;100.00
45763;BME280;37512;52.408;13.356;2024-03-23T02:50:40;100145.47;;;6.89;100.00
45763;BME280;37512;52.408;13.356;2024-03-23T02:54:41;100140.63;;;7.01;100.00
45763;BME280;37512;52.408;13.356;2024-03-23T02:58:45;100143.75;;;7.29;100.00
45763;BME280;37512;52.408;13.356;2024-03-23T03:02:45;100148.44;;;7.19;100.00
45763;BME280;37512;52.408;13.356;2024-03-23T03:06:49;100138.91;;;7.24;100.00
45763;BME280;37512;52.408;13.356;2024-03-23T03:10:49;100147.94;;;7.15;100.00
45763;BME280;37512;52.408;13.356;2024-03-23T03:14:50;100133.28;;;7.19;100.00
45763;BME280;37512;52.408;13.356;2024-03-23T03:18:54;100125.13;;;7.21;100.00
45763;BME280;37512;52.408;13.356;2024-03-23T03:22:54;100120.88;;;7.51;100.00
45763;BME280;37512;52.408;13.356;2024-03-23T03:26:55;100116.25;;;7.29;100.00
45763;BME280;37512;52.408;13.356;2024-03-23T03:30:56;100115.97;;;7.15;100.00
45763;BME280;37512;52.408;13.356;2024-03-23T03:34:57;100104.44;;;7.23;100.00
45763;BME280;37512;52.408;13.356;2024-03-23T03:38:57;100092.91;;;7.39;100.00
45763;BME280;37512;52.408;13.356;2024-03-23T03:42:58;100109.56;;;7.41;100.00
45763;BME280;37512;52.408;13.356;2024-03-23T03:46:59;100114.28;;;7.22;100.00
45763;BME280;37512;52.408;13.356;2024-03-23T03:50:59;100104.84;;;7.12;100.00
45763;BME280;37512;52.408;13.356;2024-03-23T03:55:03;100101.63;;;7.24;100.00
45763;BME280;37512;52.408;13.356;2024-03-23T03:59:11;100099.16;;;7.15;100.00
45763;BME280;37512;52.408;13.356;2024-03-23T04:03:12;100083.78;;;7.33;100.00
45763;BME280;37512;52.408;13.356;2024-03-23T04:07:12;100082.34;;;7.14;100.00
45763;BME280;37512;52.408;13.356;2024-03-23T04:11:13;100077.38;;;7.03;100.00
45763;BME280;37512;52.408;13.356;2024-03-23T04:15:14;100088.72;;;6.56;100.00
45763;BME280;37512;52.408;13.356;2024-03-23T04:19:14;100078.06;;;6.89;100.00
45763;BME280;37512;52.408;13.356;2024-03-23T04:23:15;100077.06;;;6.74;100.00
45763;BME280;37512;52.408;13.356;2024-03-23T04:27:16;100082.25;;;6.59;100.00
45763;BME280;37512;52.408;13.356;2024-03-23T04:31:17;100090.38;;;6.41;100.00
45763;BME280;37512;52.408;13.356;2024-03-23T04:35:17;100079.09;;;6.63;100.00
45763;BME280;37512;52.408;13.356;2024-03-23T04:39:20;100061.44;;;6.71;100.00
45763;BME280;37512;52.408;13.356;2024-03-23T04:43:21;100065.47;;;6.50;100.00
45763;BME280;37512;52.408;13.356;2024-03-23T04:47:21;100050.09;;;6.77;100.00
45763;BME280;37512;52.408;13.356;2024-03-23T04:51:23;100042.47;;;6.82;100.00
45763;BME280;37512;52.408;13.356;2024-03-23T04:55:23;100036.66;;;6.54;100.00
45763;BME280;37512;52.408;13.356;2024-03-23T04:59:24;100035.84;;;6.37;100.00
45763;BME280;37512;52.408;13.356;2024-03-23T05:03:25;100032.19;;;6.30;100.00
45763;BME280;37512;52.408;13.356;2024-03-23T05:07:25;100039.53;;;6.28;100.00
45763;BME280;37512;52.408;13.356;2024-03-23T05:11:26;100035.69;;;6.14;100.00
45763;BME280;37512;52.408;13.356;2024-03-23T05:15:26;100026.38;;;6.10;100.00
45763;BME280;37512;52.408;13.356;2024-03-23T05:19:27;100037.69;;;6.20;100.00
45763;BME280;37512;52.408;13.356;2024-03-23T05:23:29;100026.03;;;6.21;100.00
45763;BME280;37512;52.408;13.356;2024-03-23T05:27:29;100017.06;;;6.30;100.00
45763;BME280;37512;52.408;13.356;2024-03-23T05:31:31;100013.38;;;6.23;100.00
45763;BME280;37512;52.408;13.356;2024-03-23T05:35:32;100002.94;;;6.30;100.00
45763;BME280;37512;52.408;13.356;2024-03-23T05:39:33;99998.28;;;6.32;100.00
45763;BME280;37512;52.408;13.356;2024-03-23T05:43:33;99980.78;;;6.54;100.00
45763;BME280;37512;52.408;13.356;2024-03-23T05:47:34;99971.63;;;6.40;100.00
45763;BME280;37512;52.408;13.356;2024-03-23T05:51:35;99978.69;;;6.09;100.00
45763;BME280;37512;52.408;13.356;2024-03-23T05:55:35;99975.00;;;6.26;100.00
45763;BME280;37512;52.408;13.356;2024-03-23T05:59:36;99955.84;;;6.47;100.00
45763;BME280;37512;52.408;13.356;2024-03-23T06:03:36;99951.66;;;6.52;100.00
45763;BME280;37512;52.408;13.356;2024-03-23T06:07:37;99939.59;;;6.17;100.00
45763;BME280;37512;52.408;13.356;2024-03-23T06:11:38;99922.13;;;6.31;100.00
45763;BME280;37512;52.408;13.356;2024-03-23T06:15:39;99930.50;;;6.67;100.00
45763;BME280;37512;52.408;13.356;2024-03-23T06:19:39;99911.22;;;6.65;100.00
45763;BME280;37512;52.408;13.356;2024-03-23T06:23:41;99927.25;;;6.88;100.00
45763;BME280;37512;52.408;13.356;2024-03-23T06:27:42;99934.22;;;6.50;100.00
45763;BME280;37512;52.408;13.356;2024-03-23T06:31:42;99910.53;;;6.71;100.00
45763;BME280;37512;52.408;13.356;2024-03-23T06:35:50;99907.78;;;6.87;100.00
45763;BME280;37512;52.408;13.356;2024-03-23T06:39:50;99896.91;;;6.66;100.00
45763;BME280;37512;52.408;13.356;2024-03-23T06:43:51;99900.44;;;6.50;100.00
45763;BME280;37512;52.408;13.356;2024-03-23T06:47:51;99911.25;;;6.49;100.00
45763;BME280;37512;52.408;13.356;2024-03-23T06:51:52;99904.84;;;6.74;100.00
45763;BME280;37512;52.408;13.356;2024-03-23T06:55:53;99894.34;;;6.33;100.00
45763;BME280;37512;52.408;13.356;2024-03-23T06:59:54;99889.41;;;6.70;100.00
45763;BME280;37512;52.408;13.356;2024-03-23T07:03:55;99897.22;;;6.71;100.00
45763;BME280;37512;52.408;13.356;2024-03-23T07:07:56;99879.09;;;6.67;100.00
45763;BME280;37512;52.408;13.356;2024-03-23T07:11:56;99888.69;;;6.76;100.00
45763;BME280;37512;52.408;13.356;2024-03-23T07:15:57;99895.16;;;6.34;100.00
45763;BME280;37512;52.408;13.356;2024-03-23T07:20:00;99886.06;;;6.68;100.00
45763;BME280;37512;52.408;13.356;2024-03-23T07:24:02;99878.78;;;6.61;100.00
45763;BME280;37512;52.408;13.356;2024-03-23T07:28:02;99874.13;;;6.63;100.00
45763;BME280;37512;52.408;13.356;2024-03-23T07:32:03;99884.38;;;6.75;100.00
45763;BME280;37512;52.408;13.356;2024-03-23T07:36:04;99888.97;;;6.50;100.00
45763;BME280;37512;52.408;13.356;2024-03-23T07:40:06;99873.53;;;6.76;100.00
45763;BME280;37512;52.408;13.356;2024-03-23T07:44:06;99876.09;;;6.70;100.00
45763;BME280;37512;52.408;13.356;2024-03-23T07:48:07;99874.34;;;6.85;100.00
45763;BME280;37512;52.408;13.356;2024-03-23T07:52:08;99870.28;;;6.58;100.00
45763;BME280;37512;52.408;13.356;2024-03-23T07:56:09;99865.50;;;6.53;100.00
45763;BME280;37512;52.408;13.356;2024-03-23T08:00:15;99866.19;;;6.86;100.00
45763;BME280;37512;52.408;13.356;2024-03-23T08:04:16;99859.41;;;6.76;100.00
45763;BME280;37512;52.408;13.356;2024-03-23T08:08:16;99848.16;;;6.57;100.00
45763;BME280;37512;52.408;13.356;2024-03-23T08:12:17;99842.94;;;6.72;100.00
45763;BME280;37512;52.408;13.356;2024-03-23T08:16:18;99836.53;;;6.58;100.00
45763;BME280;37512;52.408;13.356;2024-03-23T08:20:18;99839.78;;;6.38;100.00
45763;BME280;37512;52.408;13.356;2024-03-23T08:24:19;99834.53;;;6.60;100.00
45763;BME280;37512;52.408;13.356;2024-03-23T08:28:20;99835.56;;;6.51;100.00
45763;BME280;37512;52.408;13.356;2024-03-23T08:32:23;99834.91;;;6.49;100.00
45763;BME280;37512;52.408;13.356;2024-03-23T08:36:24;99827.94;;;6.40;100.00
45763;BME280;37512;52.408;13.356;2024-03-23T08:40:25;99831.44;;;6.49;100.00
45763;BME280;37512;52.408;13.356;2024-03-23T08:44:25;99834.78;;;6.34;100.00
45763;BME280;37512;52.408;13.356;2024-03-23T08:48:26;99836.88;;;6.00;100.00
45763;BME280;37512;52.408;13.356;2024-03-23T08:52:26;99839.88;;;5.97;100.00
45763;BME280;37512;52.408;13.356;2024-03-23T08:56:30;99840.19;;;5.86;100.00
45763;BME280;37512;52.408;13.356;2024-03-23T09:00:31;99837.53;;;5.37;100.00
45763;BME280;37512;52.408;13.356;2024-03-23T09:04:34;99847.84;;;5.72;100.00
45763;BME280;37512;52.408;13.356;2024-03-23T09:08:35;99831.44;;;5.44;100.00
45763;BME280;37512;52.408;13.356;2024-03-23T09:12:37;99848.53;;;5.50;100.00
45763;BME280;37512;52.408;13.356;2024-03-23T09:16:37;99853.19;;;5.56;100.00
45763;BME280;37512;52.408;13.356;2024-03-23T09:20:38;99861.16;;;5.48;100.00
45763;BME280;37512;52.408;13.356;2024-03-23T09:24:39;99858.31;;;5.25;100.00
45763;BME280;37512;52.408;13.356;2024-03-23T09:28:39;99870.72;;;5.08;100.00
45763;BME280;37512;52.408;13.356;2024-03-23T09:32:42;99865.53;;;4.99;100.00
45763;BME280;37512;52.408;13.356;2024-03-23T09:36:44;99879.34;;;5.10;100.00
45763;BME280;37512;52.408;13.356;2024-03-23T09:40:48;99883.28;;;4.90;100.00
45763;BME280;37512;52.408;13.356;2024-03-23T09:44:51;99874.00;;;5.02;100.00
45763;BME280;37512;52.408;13.356;2024-03-23T09:48:52;99887.16;;;5.12;100.00
45763;BME280;37512;52.408;13.356;2024-03-23T09:52:52;99905.41;;;5.07;100.00
45763;BME280;37512;52.408;13.356;2024-03-23T09:56:53;99915.53;;;5.03;100.00
45763;BME280;37512;52.408;13.356;2024-03-23T10:00:54;99938.16;;;4.81;100.00
45763;BME280;37512;52.408;13.356;2024-03-23T10:04:54;99952.22;;;5.08;100.00
45763;BME280;37512;52.408;13.356;2024-03-23T10:08:55;99944.06;;;4.67;100.00
45763;BME280;37512;52.408;13.356;2024-03-23T10:12:55;99957.28;;;4.59;100.00
45763;BME280;37512;52.408;13.356;2024-03-23T10:17:20;99965.69;;;4.80;100.00
45763;BME280;37512;52.408;13.356;2024-03-23T10:21:20;99953.41;;;4.79;100.00
45763;BME280;37512;52.408;13.356;2024-03-23T10:25:24;99965.84;;;4.79;100.00
45763;BME280;37512;52.408;13.356;2024-03-23T10:29:25;99964.28;;;4.68;100.00
45763;BME280;37512;52.408;13.356;2024-03-23T10:33:28;99980.13;;;4.78;100.00
45763;BME280;37512;52.408;13.356;2024-03-23T10:37:28;99982.63;;;4.79;100.00
45763;BME280;37512;52.408;13.356;2024-03-23T10:41:31;99984.56;;;4.69;100.00
45763;BME280;37512;52.408;13.356;2024-03-23T10:45:32;99983.56;;;4.44;100.00
45763;BME280;37512;52.408;13.356;2024-03-23T10:49:34;99994.69;;;4.74;100.00
45763;BME280;37512;52.408;13.356;2024-03-23T10:53:35;99996.78;;;4.62;100.00
45763;BME280;37512;52.408;13.356;2024-03-23T10:57:42;99991.31;;;4.38;100.00
45763;BME280;37512;52.408;13.356;2024-03-23T11:02:00;100002.25;;;4.35;100.00
45763;BME280;37512;52.408;13.356;2024-03-23T11:06:04;99998.09;;;4.14;100.00
45763;BME280;37512;52.408;13.356;2024-03-23T11:10:24;100000.66;;;4.50;100.00
45763;BME280;37512;52.408;13.356;2024-03-23T11:14:25;99988.56;;;4.73;100.00
45763;BME280;37512;52.408;13.356;2024-03-23T11:18:26;99984.78;;;5.18;100.00
45763;BME280;37512;52.408;13.356;2024-03-23T11:22:46;99993.47;;;4.94;100.00
45763;BME280;37512;52.408;13.356;2024-03-23T11:26:50;99996.94;;;5.37;100.00
45763;BME280;37512;52.408;13.356;2024-03-23T11:30:50;99995.78;;;5.31;100.00
45763;BME280;37512;52.408;13.356;2024-03-23T11:34:51;99999.88;;;5.18;100.00
45763;BME280;37512;52.408;13.356;2024-03-23T11:38:52;100007.00;;;5.09;100.00
45763;BME280;37512;52.408;13.356;2024-03-23T11:42:56;100009.59;;;5.01;100.00
45763;BME280;37512;52.408;13.356;2024-03-23T11:47:08;100007.31;;;5.56;100.00
45763;BME280;37512;52.408;13.356;2024-03-23T11:51:09;100017.09;;;5.05;100.00
45763;BME280;37512;52.408;13.356;2024-03-23T11:55:11;100033.19;;;5.04;100.00
45763;BME280;37512;52.408;13.356;2024-03-23T11:59:12;100025.00;;;4.97;100.00
45763;BME280;37512;52.408;13.356;2024-03-23T12:03:12;100018.84;;;4.89;100.00
45763;BME280;37512;52.408;13.356;2024-03-23T12:07:18;100012.88;;;4.87;100.00
45763;BME280;37512;52.408;13.356;2024-03-23T12:11:24;100011.31;;;5.18;100.00
45763;BME280;37512;52.408;13.356;2024-03-23T12:15:27;100010.72;;;4.90;100.00
45763;BME280;37512;52.408;13.356;2024-03-23T12:19:27;100012.09;;;5.02;100.00
45763;BME280;37512;52.408;13.356;2024-03-23T12:23:28;100013.81;;;5.11;100.00
45763;BME280;37512;52.408;13.356;2024-03-23T12:27:28;100014.25;;;5.49;100.00
45763;BME280;37512;52.408;13.356;2024-03-23T12:31:29;100006.38;;;5.23;100.00
45763;BME280;37512;52.408;13.356;2024-03-23T12:35:30;100018.94;;;5.05;100.00
45763;BME280;37512;52.408;13.356;2024-03-23T12:39:30;100005.50;;;5.14;100.00
45763;BME280;37512;52.408;13.356;2024-03-23T12:43:31;100010.81;;;5.06;100.00
45763;BME280;37512;52.408;13.356;2024-03-23T12:47:32;100001.25;;;5.30;100.00
45763;BME280;37512;52.408;13.356;2024-03-23T12:51:33;100007.66;;;5.61;100.00
45763;BME280;37512;52.408;13.356;2024-03-23T12:55:37;99999.88;;;5.76;100.00
45763;BME280;37512;52.408;13.356;2024-03-23T12:59:37;100003.69;;;5.65;100.00
45763;BME280;37512;52.408;13.356;2024-03-23T13:03:38;99988.88;;;5.71;100.00
45763;BME280;37512;52.408;13.356;2024-03-23T13:07:45;99993.25;;;5.80;100.00
45763;BME280;37512;52.408;13.356;2024-03-23T13:11:46;99982.16;;;6.01;100.00
45763;BME280;37512;52.408;13.356;2024-03-23T13:15:50;99986.47;;;6.43;100.00
45763;BME280;37512;52.408;13.356;2024-03-23T13:19:53;99983.38;;;7.56;99.30
45763;BME280;37512;52.408;13.356;2024-03-23T13:23:54;99970.00;;;8.48;90.68
45763;BME280;37512;52.408;13.356;2024-03-23T13:27:55;99966.59;;;8.39;86.57
45763;BME280;37512;52.408;13.356;2024-03-23T13:31:56;99976.09;;;8.57;89.11
45763;BME280;37512;52.408;13.356;2024-03-23T13:35:57;99978.97;;;8.55;85.04
45763;BME280;37512;52.408;13.356;2024-03-23T13:40:00;99980.34;;;8.66;86.01
45763;BME280;37512;52.408;13.356;2024-03-23T13:44:01;99970.44;;;8.14;86.61
45763;BME280;37512;52.408;13.356;2024-03-23T13:48:02;99972.56;;;9.30;87.77
45763;BME280;37512;52.408;13.356;2024-03-23T13:52:03;99985.66;;;8.36;87.98
45763;BME280;37512;52.408;13.356;2024-03-23T13:56:04;99971.44;;;8.73;86.50
45763;BME280;37512;52.408;13.356;2024-03-23T14:00:07;99967.19;;;8.94;87.40
45763;BME280;37512;52.408;13.356;2024-03-23T14:04:11;99980.63;;;9.00;87.81
45763;BME280;37512;52.408;13.356;2024-03-23T14:08:12;99975.88;;;9.68;80.66
45763;BME280;37512;52.408;13.356;2024-03-23T14:12:16;99976.09;;;9.88;77.66
45763;BME280;37512;52.408;13.356;2024-03-23T14:16:16;99980.81;;;9.86;77.82
45763;BME280;37512;52.408;13.356;2024-03-23T14:20:18;99992.63;;;9.04;79.05
45763;BME280;37512;52.408;13.356;2024-03-23T14:24:18;99976.66;;;8.96;84.99
45763;BME280;37512;52.408;13.356;2024-03-23T14:28:19;99976.13;;;8.71;82.75
45763;BME280;37512;52.408;13.356;2024-03-23T14:32:20;99966.72;;;8.61;83.91
45763;BME280;37512;52.408;13.356;2024-03-23T14:36:20;99977.50;;;8.82;87.34
45763;BME280;37512;52.408;13.356;2024-03-23T14:40:21;99971.56;;;8.42;83.99
45763;BME280;37512;52.408;13.356;2024-03-23T14:44:22;99969.66;;;8.28;86.07
45763;BME280;37512;52.408;13.356;2024-03-23T14:48:24;99969.47;;;8.30;89.43
45763;BME280;37512;52.408;13.356;2024-03-23T14:52:25;100004.94;;;8.01;96.47
45763;BME280;37512;52.408;13.356;2024-03-23T14:56:25;100017.84;;;6.80;97.04
45763;BME280;37512;52.408;13.356;2024-03-23T15:00:26;100019.66;;;6.71;100.00
45763;BME280;37512;52.408;13.356;2024-03-23T15:04:27;100012.88;;;6.60;98.33
45763;BME280;37512;52.408;13.356;2024-03-23T15:08:27;99999.59;;;6.60;97.84
45763;BME280;37512;52.408;13.356;2024-03-23T15:12:28;99997.25;;;7.13;94.12
45763;BME280;37512;52.408;13.356;2024-03-23T15:16:29;99991.94;;;7.44;90.83
45763;BME280;37512;52.408;13.356;2024-03-23T15:20:29;99992.28;;;8.18;83.39
45763;BME280;37512;52.408;13.356;2024-03-23T15:24:36;99999.16;;;7.35;80.84
45763;BME280;37512;52.408;13.356;2024-03-23T15:28:36;99990.97;;;7.91;79.80
45763;BME280;37512;52.408;13.356;2024-03-23T15:33:01;99981.63;;;7.95;78.44
45763;BME280;37512;52.408;13.356;2024-03-23T15:37:03;99983.16;;;8.12;74.78
45763;BME280;37512;52.408;13.356;2024-03-23T15:41:04;99977.34;;;8.08;76.27
45763;BME280;37512;52.408;13.356;2024-03-23T15:45:06;99974.75;;;8.00;74.64
45763;BME280;37512;52.408;13.356;2024-03-23T15:49:08;99972.44;;;7.74;79.90
45763;BME280;37512;52.408;13.356;2024-03-23T15:53:08;99971.78;;;7.41;84.12
45763;BME280;37512;52.408;13.356;2024-03-23T15:57:09;99971.31;;;7.69;84.29
45763;BME280;37512;52.408;13.356;2024-03-23T16:01:12;99970.78;;;7.42;89.24
45763;BME280;37512;52.408;13.356;2024-03-23T16:05:13;99959.63;;;7.70;88.40
45763;BME280;37512;52.408;13.356;2024-03-23T16:09:14;99946.78;;;7.19;93.31
45763;BME280;37512;52.408;13.356;2024-03-23T16:13:15;99945.09;;;7.49;91.34
45763;BME280;37512;52.408;13.356;2024-03-23T16:17:16;99944.09;;;7.50;88.27
45763;BME280;37512;52.408;13.356;2024-03-23T16:21:17;99954.78;;;7.42;89.48
45763;BME280;37512;52.408;13.356;2024-03-23T16:25:18;99942.81;;;7.46;90.43
45763;BME280;37512;52.408;13.356;2024-03-23T16:29:19;99951.41;;;6.86;94.00
45763;BME280;37512;52.408;13.356;2024-03-23T16:33:20;99935.44;;;6.86;95.79
45763;BME280;37512;52.408;13.356;2024-03-23T16:37:20;99942.13;;;6.74;92.79
45763;BME280;37512;52.408;13.356;2024-03-23T16:41:21;99934.81;;;7.07;86.11
45763;BME280;37512;52.408;13.356;2024-03-23T16:45:22;99930.56;;;6.90;84.76
45763;BME280;37512;52.408;13.356;2024-03-23T16:49:22;99930.41;;;6.91;85.39
45763;BME280;37512;52.408;13.356;2024-03-23T16:53:23;99942.34;;;6.64;88.15
45763;BME280;37512;52.408;13.356;2024-03-23T16:57:25;99933.63;;;6.79;87.45
45763;BME280;37512;52.408;13.356;2024-03-23T17:01:26;99934.53;;;6.63;87.41
45763;BME280;37512;52.408;13.356;2024-03-23T17:05:35;99938.88;;;6.48;89.84
45763;BME280;37512;52.408;13.356;2024-03-23T17:09:46;99933.44;;;6.17;93.33
45763;BME280;37512;52.408;13.356;2024-03-23T17:13:50;99939.44;;;6.11;94.54
45763;BME280;37512;52.408;13.356;2024-03-23T17:17:54;99935.94;;;6.18;93.71
45763;BME280;37512;52.408;13.356;2024-03-23T17:21:55;99938.44;;;5.95;96.06
45763;BME280;37512;52.408;13.356;2024-03-23T17:25:57;99946.88;;;5.74;98.90
45763;BME280;37512;52.408;13.356;2024-03-23T17:29:58;99952.34;;;5.57;99.70
45763;BME280;37512;52.408;13.356;2024-03-23T17:33:58;99963.97;;;5.64;100.00
45763;BME280;37512;52.408;13.356;2024-03-23T17:37:59;99960.94;;;5.42;100.00
45763;BME280;37512;52.408;13.356;2024-03-23T17:42:00;99972.22;;;5.36;100.00
45763;BME280;37512;52.408;13.356;2024-03-23T17:46:00;99982.22;;;5.42;100.00
45763;BME280;37512;52.408;13.356;2024-03-23T17:50:01;99982.72;;;5.46;100.00
45763;BME280;37512;52.408;13.356;2024-03-23T17:54:02;99986.47;;;5.27;100.00
45763;BME280;37512;52.408;13.356;2024-03-23T17:58:03;99994.25;;;5.21;100.00
45763;BME280;37512;52.408;13.356;2024-03-23T18:02:04;99991.84;;;5.01;100.00
45763;BME280;37512;52.408;13.356;2024-03-23T18:06:04;100007.00;;;4.83;100.00
45763;BME280;37512;52.408;13.356;2024-03-23T18:10:05;100012.91;;;5.03;100.00
45763;BME280;37512;52.408;13.356;2024-03-23T18:14:06;100012.88;;;4.95;100.00
45763;BME280;37512;52.408;13.356;2024-03-23T18:18:07;100025.16;;;4.96;100.00
45763;BME280;37512;52.408;13.356;2024-03-23T18:22:07;100032.91;;;5.15;100.00
45763;BME280;37512;52.408;13.356;2024-03-23T18:26:08;100036.94;;;5.27;100.00
45763;BME280;37512;52.408;13.356;2024-03-23T18:30:09;100054.22;;;5.31;100.00
45763;BME280;37512;52.408;13.356;2024-03-23T18:34:11;100070.44;;;5.20;100.00
45763;BME280;37512;52.408;13.356;2024-03-23T18:38:12;100069.22;;;5.49;100.00
45763;BME280;37512;52.408;13.356;2024-03-23T18:42:12;100070.00;;;4.99;100.00
45763;BME280;37512;52.408;13.356;2024-03-23T18:46:13;100059.09;;;5.10;100.00
45763;BME280;37512;52.408;13.356;2024-03-23T18:50:14;100074.03;;;5.11;100.00
45763;BME280;37512;52.408;13.356;2024-03-23T18:54:15;100063.91;;;4.80;100.00
45763;BME280;37512;52.408;13.356;2024-03-23T18:58:15;100065.78;;;4.62;100.00
45763;BME280;37512;52.408;13.356;2024-03-23T19:02:16;100067.00;;;5.02;100.00
45763;BME280;37512;52.408;13.356;2024-03-23T19:06:17;100070.88;;;4.81;100.00
45763;BME280;37512;52.408;13.356;2024-03-23T19:10:18;100065.84;;;4.70;100.00
45763;BME280;37512;52.408;13.356;2024-03-23T19:14:21;100070.88;;;4.81;100.00
45763;BME280;37512;52.408;13.356;2024-03-23T19:18:22;100066.34;;;4.30;100.00
45763;BME280;37512;52.408;13.356;2024-03-23T19:22:23;100062.09;;;4.55;100.00
45763;BME280;37512;52.408;13.356;2024-03-23T19:26:23;100058.31;;;4.40;100.00
45763;BME280;37512;52.408;13.356;2024-03-23T19:30:24;100064.09;;;4.61;100.00
45763;BME280;37512;52.408;13.356;2024-03-23T19:34:24;100072.78;;;4.45;100.00
45763;BME280;37512;52.408;13.356;2024-03-23T19:38:25;100065.50;;;4.47;100.00
45763;BME280;37512;52.408;13.356;2024-03-23T19:42:26;100050.09;;;4.51;100.00
45763;BME280;37512;52.408;13.356;2024-03-23T19:46:27;100050.47;;;4.56;100.00
45763;BME280;37512;52.408;13.356;2024-03-23T19:50:28;100051.41;;;4.47;100.00
45763;BME280;37512;52.408;13.356;2024-03-23T19:54:28;100050.75;;;4.27;100.00
45763;BME280;37512;52.408;13.356;2024-03-23T19:58:29;100061.25;;;4.54;100.00
45763;BME280;37512;52.408;13.356;2024-03-23T20:02:30;100047.47;;;4.33;100.00
45763;BME280;37512;52.408;13.356;2024-03-23T20:06:31;100045.44;;;4.27;100.00
45763;BME280;37512;52.408;13.356;2024-03-23T20:10:31;100047.75;;;4.48;100.00
45763;BME280;37512;52.408;13.356;2024-03-23T20:14:33;100042.44;;;4.48;100.00
45763;BME280;37512;52.408;13.356;2024-03-23T20:18:38;100037.94;;;4.66;100.00
45763;BME280;37512;52.408;13.356;2024-03-23T20:22:40;100046.47;;;4.52;100.00
45763;BME280;37512;52.408;13.356;2024-03-23T20:26:41;100041.13;;;4.08;100.00
45763;BME280;37512;52.408;13.356;2024-03-23T20:30:41;100044.25;;;3.86;100.00
45763;BME280;37512;52.408;13.356;2024-03-23T20:34:42;100039.00;;;3.76;100.00
45763;BME280;37512;52.408;13.356;2024-03-23T20:38:43;100038.69;;;3.79;100.00
45763;BME280;37512;52.408;13.356;2024-03-23T20:42:46;100035.81;;;3.55;100.00
45763;BME280;37512;52.408;13.356;2024-03-23T20:46:47;100044.28;;;3.58;100.00
45763;BME280;37512;52.408;13.356;2024-03-23T20:50:59;100044.94;;;3.43;100.00
45763;BME280;37512;52.408;13.356;2024-03-23T20:55:00;100045.72;;;3.53;100.00
45763;BME280;37512;52.408;13.356;2024-03-23T20:59:00;100043.75;;;3.27;100.00
45763;BME280;37512;52.408;13.356;2024-03-23T21:03:01;100046.38;;;3.37;100.00
45763;BME280;37512;52.408;13.356;2024-03-23T21:07:02;100045.78;;;3.16;100.00
45763;BME280;37512;52.408;13.356;2024-03-23T21:11:03;100048.06;;;3.28;100.00
45763;BME280;37512;52.408;13.356;2024-03-23T21:15:04;100045.53;;;3.37;100.00
45763;BME280;37512;52.408;13.356;2024-03-23T21:19:05;100048.41;;;3.43;100.00
45763;BME280;37512;52.408;13.356;2024-03-23T21:23:06;100040.34;;;3.62;100.00
45763;BME280;37512;52.408;13.356;2024-03-23T21:27:06;100034.00;;;3.28;100.00
45763;BME280;37512;52.408;13.356;2024-03-23T21:31:07;100031.50;;;3.26;100.00
45763;BME280;37512;52.408;13.356;2024-03-23T21:35:07;100034.78;;;3.38;100.00
45763;BME280;37512;52.408;13.356;2024-03-23T21:39:08;100028.66;;;3.38;100.00
45763;BME280;37512;52.408;13.356;2024-03-23T21:43:09;100029.94;;;3.33;100.00
45763;BME280;37512;52.408;13.356;2024-03-23T21:47:09;100017.31;;;3.45;100.00
45763;BME280;37512;52.408;13.356;2024-03-23T21:51:10;100019.28;;;3.43;100.00